28MI weather

Miller-Herrold Airport
Cedar, Michigan, United States

Public forecast

Using degrees Fahrenheit for public forecast. Weather courtesy of forecast.io.

Closest aviation weather report (METAR) to Miller-Herrold Airport

Closest report is Cherry Capital Airport, 12.0 nm (22.2 km) SE. Retrieved 2020/04/05 21:53 UTC (47 minutes ago):

KTVC 052153Z 02007KT 10SM CLR 06/M01 A3017 RMK AO2 SLP224 T00561006

Closest aviation forecast (TAF) to Miller-Herrold Airport

Closest forecast is Cherry Capital Airport, 12.0 nm (22.2 km) SE. Retrieved 2020/04/05 18:22 UTC (4 hours ago):

TAF KTVC 051720Z 0518/0618 02007KT P6SM SKC FM060100 VRB03KT P6SM SKC FM061100 VRB03KT P6SM BKN200 FM061600 23006KT P6SM BKN140